EDVK/KSF METAR and TAF weather

Enter ICAO airport designator
Station Type Date Time Source
EDVK METAR 2019/12/11 17:20 UTC NOAA

EDVK 111720Z 17005KT 8000 -SNRA SCT009 BKN014 01/00 Q1005


Station Type Date Time Source
EDVK Decoded METAR 2019/12/11 17:20 UTC NOAA

Kassel / Calden, Germany (EDVK) 51-24N 009-23E 283M
Dec 11, 2019 - 12:20 PM EST / 2019.12.11 1720 UTC
Wind: from the S (170 degrees) at 6 MPH (5 KT):0
Visibility: 4 mile(s):0
Sky conditions: mostly cloudy
Weather: light snow, rain
Temperature: 33 F (1 C)
Windchill: 26 F (-3 C):1
Dew Point: 32 F (0 C)
Relative Humidity: 93%
Pressure (altimeter): 29.68 in. Hg (1005 hPa)
ob: EDVK 111720Z 17005KT 8000 -SNRA SCT009 BKN014 01/00 Q1005
cycle: 17

Station Type Date Time Source
EDVK TAF 2011/03/23 07:09 UTC NOAA

TAF COR EDVK 230655Z 2307/2321 30002KT 3500 BR SCT025 PROB30
TEMPO 2307/2309 1400 BCFG
BECMG 2307/2310 01007KT 8000

Example: see airport list